Taurus — 9HA4372 — position and weather

sailwx.info

Track history (hours):
 
Tides and Currents Weather Stations Pressure Air Temp Water Temp Dewpoint Dewpoint Depression Visibility Wind Speed Wind Dir Waves Ship Positions

Taurus

Last reported at 2018-May-20 09:28 UTC. Time now 2018-May-20 09:44 UTC.
Position N 01°16' E 103°47'.

Length 369 m; draft 14.4 m.

Type: Ship (hazmat cat A). MMSI: 249773000.

Date/timePositionNaut miles runAvg speedWind from/ knotsBaromVisibWave heightAir tempDewpointWater temp
2018-May-20 09:28N 01°16' E 103°47'0 0.0
2018-May-20 08:58N 01°16' E 103°47'0 0.0
2018-May-20 08:29N 01°16' E 103°47'0 0.0
2018-May-20 07:59N 01°16' E 103°47'0 0.0
2018-May-20 07:28N 01°16' E 103°47'0 0.0
2018-May-20 06:59N 01°16' E 103°47'0 0.0
2018-May-20 06:29N 01°16' E 103°47'0 0.0
2018-May-20 05:59N 01°16' E 103°47'0 0.0
2018-May-20 05:28N 01°16' E 103°47'0 0.0
2018-May-20 04:59N 01°16' E 103°47'0 0.0
2018-May-20 04:28N 01°16' E 103°47'0 0.0
2018-May-20 03:58N 01°16' E 103°47'0 0.0
2018-May-20 03:28N 01°16' E 103°47'0 0.1
2018-May-20 02:59N 01°16' E 103°47'0 0.1
2018-May-20 02:28N 01°16' E 103°47'0 0.0
2018-May-20 01:58N 01°16' E 103°47'0 0.0
2018-May-20 01:29N 01°16' E 103°47'0 0.0
2018-May-20 00:59N 01°16' E 103°47'0 0.0
2018-May-20 00:29N 01°16' E 103°47'0 0.0
2018-May-19 23:59N 01°16' E 103°47'0 0.0
2018-May-19 23:29N 01°16' E 103°47'0 0.0
2018-May-19 22:58N 01°16' E 103°47'0 0.0
2018-May-19 22:30N 01°16' E 103°47'0 0.7
2018-May-19 22:00N 01°16' E 103°47'0 0.3
2018-May-19 21:30N 01°16' E 103°47'1 2.0
2018-May-19 21:01N 01°15' E 103°47'4 8.0
2018-May-19 20:31N 01°14' E 103°43'4 8.9
2018-May-19 20:01N 01°12' E 103°39'5 9.3
2018-May-19 19:30N 01°10' E 103°34'2 3.5
2018-May-19 19:01N 01°09' E 103°33'0 0.6
2018-May-19 18:31N 01°09' E 103°33'0 0.4
2018-May-19 18:00N 01°09' E 103°33'0 0.4
2018-May-19 17:30N 01°09' E 103°32'0 0.2
2018-May-19 16:59N 01°10' E 103°32'0 0.1
2018-May-19 16:30N 01°10' E 103°32'0 0.3
2018-May-19 16:00N 01°10' E 103°33'0 0.7
2018-May-19 15:30N 01°10' E 103°33'1 1.2
2018-May-19 15:01N 01°10' E 103°33'1 1.4
2018-May-19 14:30N 01°10' E 103°33'2 3.2
2018-May-19 14:01N 01°11' E 103°32'1 1.5
2018-May-19 13:31N 01°10' E 103°32'1 1.1
2018-May-19 13:01N 01°10' E 103°33'0 0.6
2018-May-19 12:30N 01°10' E 103°32'2 3.5
2018-May-19 12:01N 01°11' E 103°31'0 0.6
2018-May-19 11:29N 01°10' E 103°31'0 1.0
2018-May-19 11:00N 01°10' E 103°31'0 0.9
2018-May-19 10:31N 01°10' E 103°32'2 3.1
2018-May-19 10:00N 01°09' E 103°31'0 0.6
2018-May-19 09:30N 01°09' E 103°32'0 0.7
2018-May-19 09:00N 01°09' E 103°32'0 0.7
2018-May-19 08:30N 01°10' E 103°32'0 0.6
2018-May-19 08:00N 01°10' E 103°31'0 0.6
2018-May-19 07:31N 01°10' E 103°31'510.9
2018-May-19 07:00N 01°15' E 103°32'5 9.8
2018-May-19 06:30N 01°20' E 103°33'1 1.6
2018-May-19 06:00N 01°21' E 103°33'0 0.1
2018-May-19 05:21N 01°21' E 103°33'0 0.0
2018-May-19 04:57N 01°21' E 103°33'0 0.0
2018-May-19 04:26N 01°21' E 103°33'0 0.0
2018-May-19 03:56N 01°21' E 103°33'0 0.0
2018-May-19 03:28N 01°21' E 103°33'0 0.0
2018-May-19 03:01N 01°21' E 103°33'0 0.0
2018-May-19 02:31N 01°21' E 103°33'0 0.0
2018-May-19 01:57N 01°21' E 103°33'0 0.0
2018-May-19 01:21N 01°21' E 103°33'0 0.0
2018-May-19 00:56N 01°21' E 103°33'0 0.0
2018-May-19 00:27N 01°21' E 103°33'0 0.0
2018-May-18 23:56N 01°21' E 103°33'0 0.0
2018-May-18 23:26N 01°21' E 103°33'0 0.0
2018-May-18 22:51N 01°21' E 103°33'0 0.0
2018-May-18 22:29N 01°21' E 103°33'0 0.0
2018-May-18 21:57N 01°21' E 103°33'0 0.0
2018-May-18 21:30N 01°21' E 103°33'0 0.0
2018-May-18 21:00N 01°21' E 103°33'0 0.0
2018-May-18 20:23N 01°21' E 103°33'0 0.0
2018-May-18 19:56N 01°21' E 103°33'0 0.0
2018-May-18 19:28N 01°21' E 103°33'0 0.0
2018-May-18 18:55N 01°21' E 103°33'0 0.0
2018-May-18 18:27N 01°21' E 103°33'0 0.0
2018-May-18 17:58N 01°21' E 103°33'0 0.0
2018-May-18 17:28N 01°21' E 103°33'0 0.0
2018-May-18 16:57N 01°21' E 103°33'0 0.0
2018-May-18 16:27N 01°21' E 103°33'0 0.0
2018-May-18 15:57N 01°21' E 103°33'0 0.0
2018-May-18 15:27N 01°21' E 103°33'0 0.0
2018-May-18 14:58N 01°21' E 103°33'0 0.0
2018-May-18 14:27N 01°21' E 103°33'0 0.1
2018-May-18 13:58N 01°21' E 103°33'0 0.0
2018-May-18 13:31N 01°21' E 103°33'0 0.0
2018-May-18 12:59N 01°21' E 103°33'0 0.0
2018-May-18 12:28N 01°21' E 103°33'0 0.0
2018-May-18 12:00N 01°21' E 103°33'0 0.0
2018-May-18 11:30N 01°21' E 103°33'0 0.0
2018-May-18 11:00N 01°21' E 103°33'0 0.1
2018-May-18 10:30N 01°21' E 103°33'0 0.1
2018-May-18 10:00N 01°21' E 103°33'0 0.0
2018-May-18 09:27N 01°21' E 103°33'0 0.0
2018-May-18 08:59N 01°21' E 103°33'0 0.0
2018-May-18 08:26N 01°21' E 103°33'0 0.0
2018-May-18 08:00N 01°21' E 103°33'0 0.0
2018-May-18 07:30N 01°21' E 103°33'0 0.0
2018-May-18 06:59N 01°21' E 103°33'0 0.0
2018-May-18 06:27N 01°21' E 103°33'0 0.0
2018-May-18 05:56N 01°21' E 103°33'0 0.0
2018-May-18 05:30N 01°21' E 103°33'0 0.2
2018-May-18 05:00N 01°21' E 103°33'3 5.6
2018-May-18 04:30N 01°18' E 103°33'510.7
2018-May-18 04:01N 01°13' E 103°32'3 5.6
2018-May-18 03:30N 01°12' E 103°30'0 0.6
2018-May-18 03:00N 01°12' E 103°30'1 1.2
2018-May-18 02:30N 01°12' E 103°29'1 1.9
2018-May-18 02:00N 01°12' E 103°28'1 1.4
2018-May-18 01:30N 01°12' E 103°28'1 1.1
2018-May-18 00:59N 01°12' E 103°28'1 1.1
2018-May-18 00:30N 01°11' E 103°29'1 1.0
2018-May-17 23:57N 01°11' E 103°29'0 1.0
2018-May-17 23:30N 01°11' E 103°30'0 0.7
2018-May-17 22:59N 01°11' E 103°29'1 2.0
2018-May-17 22:30N 01°12' E 103°28'0 0.7
2018-May-17 22:00N 01°12' E 103°29'0 0.6
2018-May-17 21:30N 01°12' E 103°29'0 0.4
2018-May-17 21:00N 01°11' E 103°29'0 0.8
2018-May-17 20:30N 01°11' E 103°29'0 0.4
2018-May-17 20:00N 01°11' E 103°29'0 0.6
2018-May-17 19:29N 01°11' E 103°29'1 1.1
2018-May-17 18:59N 01°12' E 103°30'0 0.3
2018-May-17 18:31N 01°12' E 103°30'0 0.4
2018-May-17 18:00N 01°11' E 103°29'0 0.8
2018-May-17 17:30N 01°11' E 103°29'1 1.5
2018-May-17 16:59N 01°11' E 103°28'3 5.7
2018-May-17 16:30N 01°11' E 103°26'4 7.2
2018-May-17 16:00N 01°13' E 103°23'611.7
2018-May-17 15:29N 01°17' E 103°18'713.0
2018-May-17 14:58N 01°22' E 103°13'612.1
2018-May-17 14:30N 01°25' E 103°09'3612.9
2018-May-17 11:44N 01°42' E 102°37'512.7
2018-May-17 11:19N 01°45' E 102°33'  
Track history (hours):
 
Tides and Currents Weather Stations Pressure Air Temp Water Temp Dewpoint Dewpoint Depression Visibility Wind Speed Wind Dir Waves Ship Positions

Taurus

Last reported at 2018-May-20 09:28 UTC. Time now 2018-May-20 09:44 UTC.
Position N 01°16' E 103°47'.

Length 369 m; draft 14.4 m.

Type: Ship (hazmat cat A). MMSI: 249773000.

Date/timePositionNaut miles runAvg speedWind from/ knotsBaromVisibWave heightAir tempDewpointWater temp
2018-May-20 09:28N 01°16' E 103°47'0 0.0
2018-May-20 08:58N 01°16' E 103°47'0 0.0
2018-May-20 08:29N 01°16' E 103°47'0 0.0
2018-May-20 07:59N 01°16' E 103°47'0 0.0
2018-May-20 07:28N 01°16' E 103°47'0 0.0
2018-May-20 06:59N 01°16' E 103°47'0 0.0
2018-May-20 06:29N 01°16' E 103°47'0 0.0
2018-May-20 05:59N 01°16' E 103°47'0 0.0
2018-May-20 05:28N 01°16' E 103°47'0 0.0
2018-May-20 04:59N 01°16' E 103°47'0 0.0
2018-May-20 04:28N 01°16' E 103°47'0 0.0
2018-May-20 03:58N 01°16' E 103°47'0 0.0
2018-May-20 03:28N 01°16' E 103°47'0 0.1
2018-May-20 02:59N 01°16' E 103°47'0 0.1
2018-May-20 02:28N 01°16' E 103°47'0 0.0
2018-May-20 01:58N 01°16' E 103°47'0 0.0
2018-May-20 01:29N 01°16' E 103°47'0 0.0
2018-May-20 00:59N 01°16' E 103°47'0 0.0
2018-May-20 00:29N 01°16' E 103°47'0 0.0
2018-May-19 23:59N 01°16' E 103°47'0 0.0
2018-May-19 23:29N 01°16' E 103°47'0 0.0
2018-May-19 22:58N 01°16' E 103°47'0 0.0
2018-May-19 22:30N 01°16' E 103°47'0 0.7
2018-May-19 22:00N 01°16' E 103°47'0 0.3
2018-May-19 21:30N 01°16' E 103°47'1 2.0
2018-May-19 21:01N 01°15' E 103°47'4 8.0
2018-May-19 20:31N 01°14' E 103°43'4 8.9
2018-May-19 20:01N 01°12' E 103°39'5 9.3
2018-May-19 19:30N 01°10' E 103°34'2 3.5
2018-May-19 19:01N 01°09' E 103°33'0 0.6
2018-May-19 18:31N 01°09' E 103°33'0 0.4
2018-May-19 18:00N 01°09' E 103°33'0 0.4
2018-May-19 17:30N 01°09' E 103°32'0 0.2
2018-May-19 16:59N 01°10' E 103°32'0 0.1
2018-May-19 16:30N 01°10' E 103°32'0 0.3
2018-May-19 16:00N 01°10' E 103°33'0 0.7
2018-May-19 15:30N 01°10' E 103°33'1 1.2
2018-May-19 15:01N 01°10' E 103°33'1 1.4
2018-May-19 14:30N 01°10' E 103°33'2 3.2
2018-May-19 14:01N 01°11' E 103°32'1 1.5
2018-May-19 13:31N 01°10' E 103°32'1 1.1
2018-May-19 13:01N 01°10' E 103°33'0 0.6
2018-May-19 12:30N 01°10' E 103°32'2 3.5
2018-May-19 12:01N 01°11' E 103°31'0 0.6
2018-May-19 11:29N 01°10' E 103°31'0 1.0
2018-May-19 11:00N 01°10' E 103°31'0 0.9
2018-May-19 10:31N 01°10' E 103°32'2 3.1
2018-May-19 10:00N 01°09' E 103°31'0 0.6
2018-May-19 09:30N 01°09' E 103°32'0 0.7
2018-May-19 09:00N 01°09' E 103°32'0 0.7
2018-May-19 08:30N 01°10' E 103°32'0 0.6
2018-May-19 08:00N 01°10' E 103°31'0 0.6
2018-May-19 07:31N 01°10' E 103°31'510.9
2018-May-19 07:00N 01°15' E 103°32'5 9.8
2018-May-19 06:30N 01°20' E 103°33'1 1.6
2018-May-19 06:00N 01°21' E 103°33'0 0.1
2018-May-19 05:21N 01°21' E 103°33'0 0.0
2018-May-19 04:57N 01°21' E 103°33'0 0.0
2018-May-19 04:26N 01°21' E 103°33'0 0.0
2018-May-19 03:56N 01°21' E 103°33'0 0.0
2018-May-19 03:28N 01°21' E 103°33'0 0.0
2018-May-19 03:01N 01°21' E 103°33'0 0.0
2018-May-19 02:31N 01°21' E 103°33'0 0.0
2018-May-19 01:57N 01°21' E 103°33'0 0.0
2018-May-19 01:21N 01°21' E 103°33'0 0.0
2018-May-19 00:56N 01°21' E 103°33'0 0.0
2018-May-19 00:27N 01°21' E 103°33'0 0.0
2018-May-18 23:56N 01°21' E 103°33'0 0.0
2018-May-18 23:26N 01°21' E 103°33'0 0.0
2018-May-18 22:51N 01°21' E 103°33'0 0.0
2018-May-18 22:29N 01°21' E 103°33'0 0.0
2018-May-18 21:57N 01°21' E 103°33'0 0.0
2018-May-18 21:30N 01°21' E 103°33'0 0.0
2018-May-18 21:00N 01°21' E 103°33'0 0.0
2018-May-18 20:23N 01°21' E 103°33'0 0.0
2018-May-18 19:56N 01°21' E 103°33'0 0.0
2018-May-18 19:28N 01°21' E 103°33'0 0.0
2018-May-18 18:55N 01°21' E 103°33'0 0.0
2018-May-18 18:27N 01°21' E 103°33'0 0.0
2018-May-18 17:58N 01°21' E 103°33'0 0.0
2018-May-18 17:28N 01°21' E 103°33'0 0.0
2018-May-18 16:57N 01°21' E 103°33'0 0.0
2018-May-18 16:27N 01°21' E 103°33'0 0.0
2018-May-18 15:57N 01°21' E 103°33'0 0.0
2018-May-18 15:27N 01°21' E 103°33'0 0.0
2018-May-18 14:58N 01°21' E 103°33'0 0.0
2018-May-18 14:27N 01°21' E 103°33'0 0.1
2018-May-18 13:58N 01°21' E 103°33'0 0.0
2018-May-18 13:31N 01°21' E 103°33'0 0.0
2018-May-18 12:59N 01°21' E 103°33'0 0.0
2018-May-18 12:28N 01°21' E 103°33'0 0.0
2018-May-18 12:00N 01°21' E 103°33'0 0.0
2018-May-18 11:30N 01°21' E 103°33'0 0.0
2018-May-18 11:00N 01°21' E 103°33'0 0.1
2018-May-18 10:30N 01°21' E 103°33'0 0.1
2018-May-18 10:00N 01°21' E 103°33'0 0.0
2018-May-18 09:27N 01°21' E 103°33'0 0.0
2018-May-18 08:59N 01°21' E 103°33'0 0.0
2018-May-18 08:26N 01°21' E 103°33'0 0.0
2018-May-18 08:00N 01°21' E 103°33'0 0.0
2018-May-18 07:30N 01°21' E 103°33'0 0.0
2018-May-18 06:59N 01°21' E 103°33'0 0.0
2018-May-18 06:27N 01°21' E 103°33'0 0.0
2018-May-18 05:56N 01°21' E 103°33'0 0.0
2018-May-18 05:30N 01°21' E 103°33'0 0.2
2018-May-18 05:00N 01°21' E 103°33'3 5.6
2018-May-18 04:30N 01°18' E 103°33'510.7
2018-May-18 04:01N 01°13' E 103°32'3 5.6
2018-May-18 03:30N 01°12' E 103°30'0 0.6
2018-May-18 03:00N 01°12' E 103°30'1 1.2
2018-May-18 02:30N 01°12' E 103°29'1 1.9
2018-May-18 02:00N 01°12' E 103°28'1 1.4
2018-May-18 01:30N 01°12' E 103°28'1 1.1
2018-May-18 00:59N 01°12' E 103°28'1 1.1
2018-May-18 00:30N 01°11' E 103°29'1 1.0
2018-May-17 23:57N 01°11' E 103°29'0 1.0
2018-May-17 23:30N 01°11' E 103°30'0 0.7
2018-May-17 22:59N 01°11' E 103°29'1 2.0
2018-May-17 22:30N 01°12' E 103°28'0 0.7
2018-May-17 22:00N 01°12' E 103°29'0 0.6
2018-May-17 21:30N 01°12' E 103°29'0 0.4
2018-May-17 21:00N 01°11' E 103°29'0 0.8
2018-May-17 20:30N 01°11' E 103°29'0 0.4
2018-May-17 20:00N 01°11' E 103°29'0 0.6
2018-May-17 19:29N 01°11' E 103°29'1 1.1
2018-May-17 18:59N 01°12' E 103°30'0 0.3
2018-May-17 18:31N 01°12' E 103°30'0 0.4
2018-May-17 18:00N 01°11' E 103°29'0 0.8
2018-May-17 17:30N 01°11' E 103°29'1 1.5
2018-May-17 16:59N 01°11' E 103°28'3 5.7
2018-May-17 16:30N 01°11' E 103°26'4 7.2
2018-May-17 16:00N 01°13' E 103°23'611.7
2018-May-17 15:29N 01°17' E 103°18'713.0
2018-May-17 14:58N 01°22' E 103°13'612.1
2018-May-17 14:30N 01°25' E 103°09'3612.9
2018-May-17 11:44N 01°42' E 102°37'512.7
2018-May-17 11:19N 01°45' E 102°33'  

Dump ship's entire track history